Time;durP1;ratioP1;P1;durP2;ratioP2;P2;SDS_P1;SDS_P2;PMS_P1;PMS_P2;Temp;Humidity;BMP_temperature;BMP_pressure;BME280_temperature;BME280_humidity;BME280_pressure;Samples;Min_cycle;Max_cycle;Signal;HPM_P1;HPM_P2
2022/07/19 00:00:07;;;;;;;;;;;26.60;34.70;;;;;;6097106;23;19909;-58
2022/07/19 00:02:33;;;;;;;;;;;26.40;34.20;;;;;;6096768;23;19988;-63
2022/07/19 00:04:58;;;;;;;;;;;26.40;34.70;;;;;;6096750;23;19936;-59
2022/07/19 00:07:24;;;;;;;;;;;26.40;35.10;;;;;;6097032;23;19953;-59
2022/07/19 00:09:49;;;;;;;;;;;26.50;34.50;;;;;;6096816;23;20392;-62
2022/07/19 00:12:15;;;;;;;;;;;26.50;34.20;;;;;;6096729;23;19913;-60
2022/07/19 00:14:41;;;;;;;;;;;26.50;34.80;;;;;;6096810;23;19905;-61
2022/07/19 00:17:06;;;;;;;;;;;26.60;34.80;;;;;;6096572;23;20330;-60
2022/07/19 00:19:32;;;;;;;;;;;26.60;33.90;;;;;;6097047;23;19909;-60
2022/07/19 00:21:57;;;;;;;;;;;26.60;33.60;;;;;;6096721;23;19980;-59
2022/07/19 00:24:23;;;;;;;;;;;26.70;33.50;;;;;;6096672;23;19906;-59
2022/07/19 00:26:48;;;;;;;;;;;26.60;33.20;;;;;;6096781;23;20323;-59
2022/07/19 00:29:14;;;;;;;;;;;26.60;33.50;;;;;;6096800;23;19929;-58
2022/07/19 00:31:39;;;;;;;;;;;26.60;33.30;;;;;;6096647;23;19911;-60
2022/07/19 00:34:05;;;;;;;;;;;26.70;33.10;;;;;;6096652;23;19914;-59
2022/07/19 00:36:31;;;;;;;;;;;26.60;33.10;;;;;;6096984;23;19990;-59
2022/07/19 00:38:56;;;;;;;;;;;26.60;33.00;;;;;;6096590;23;19932;-58
2022/07/19 00:41:22;;;;;;;;;;;26.60;33.00;;;;;;6096543;23;19909;-59
2022/07/19 00:43:50;;;;;;;;;;;26.60;33.00;;;;;;6096537;23;19906;-61
2022/07/19 00:46:20;;;;;;;;;;;26.60;32.90;;;;;;6096067;23;19913;-61
2022/07/19 00:48:46;;;;;;;;;;;26.50;32.90;;;;;;6096396;23;19916;-62
2022/07/19 00:51:13;;;;;;;;;;;26.50;33.10;;;;;;6096433;23;19913;-59
2022/07/19 00:53:39;;;;;;;;;;;26.40;32.70;;;;;;6096360;23;20241;-59
2022/07/19 00:56:06;;;;;;;;;;;26.50;32.60;;;;;;6103710;23;19941;-60
2022/07/19 00:58:32;;;;;;;;;;;26.50;32.50;;;;;;6100475;23;19906;-58
2022/07/19 01:00:59;;;;;;;;;;;26.40;32.50;;;;;;6096653;23;19906;-60
2022/07/19 01:03:25;;;;;;;;;;;26.50;32.90;;;;;;6096392;23;19952;-58
2022/07/19 01:05:51;;;;;;;;;;;26.50;32.60;;;;;;6096673;23;19906;-62
2022/07/19 01:08:17;;;;;;;;;;;26.50;32.70;;;;;;6096219;23;19933;-59
2022/07/19 01:10:43;;;;;;;;;;;26.50;32.80;;;;;;6096564;23;19940;-59
2022/07/19 01:13:09;;;;;;;;;;;26.40;33.30;;;;;;6096438;23;20318;-60
2022/07/19 01:15:35;;;;;;;;;;;26.40;33.40;;;;;;6096359;23;19979;-60
2022/07/19 01:18:01;;;;;;;;;;;26.40;33.00;;;;;;6096437;23;19913;-59
2022/07/19 01:20:26;;;;;;;;;;;26.40;33.10;;;;;;6096391;23;19937;-59
2022/07/19 01:22:52;;;;;;;;;;;26.40;33.00;;;;;;6096170;23;19941;-59
2022/07/19 01:25:17;;;;;;;;;;;26.40;33.10;;;;;;6096228;23;19905;-59
2022/07/19 01:27:45;;;;;;;;;;;26.40;33.30;;;;;;6096267;23;19905;-59
2022/07/19 01:30:12;;;;;;;;;;;26.40;33.20;;;;;;6096133;23;19960;-59
2022/07/19 01:32:37;;;;;;;;;;;26.30;33.30;;;;;;6096186;23;19905;-59
2022/07/19 01:35:03;;;;;;;;;;;26.30;33.10;;;;;;6096106;23;19966;-60
2022/07/19 01:37:29;;;;;;;;;;;26.30;33.40;;;;;;6096232;23;19909;-59
2022/07/19 01:39:56;;;;;;;;;;;26.30;33.20;;;;;;6096270;23;19909;-59
2022/07/19 01:42:23;;;;;;;;;;;26.20;33.30;;;;;;6096113;23;20344;-59
2022/07/19 01:44:49;;;;;;;;;;;26.20;33.60;;;;;;6094889;23;19911;-58
2022/07/19 01:47:15;;;;;;;;;;;26.20;33.70;;;;;;6094621;23;19944;-61
2022/07/19 01:49:40;;;;;;;;;;;26.20;33.70;;;;;;6096103;23;19917;-60
2022/07/19 01:52:06;;;;;;;;;;;26.10;33.50;;;;;;6095910;23;19905;-59
2022/07/19 01:54:31;;;;;;;;;;;26.20;33.70;;;;;;6096131;23;19909;-61
2022/07/19 01:56:57;;;;;;;;;;;26.20;33.80;;;;;;6096060;23;20453;-59
2022/07/19 01:59:22;;;;;;;;;;;26.10;33.60;;;;;;6096168;23;19913;-61
2022/07/19 02:01:48;;;;;;;;;;;26.10;33.60;;;;;;6095925;23;19909;-60
2022/07/19 02:04:13;;;;;;;;;;;26.10;33.40;;;;;;6096035;23;20365;-61
2022/07/19 02:06:39;;;;;;;;;;;26.00;33.50;;;;;;6095952;23;19916;-59
2022/07/19 02:09:04;;;;;;;;;;;26.00;33.60;;;;;;6095947;23;19960;-59
2022/07/19 02:11:36;;;;;;;;;;;26.00;34.20;;;;;;6096051;23;19912;-60
2022/07/19 02:14:02;;;;;;;;;;;26.00;33.80;;;;;;6096028;23;19905;-59
2022/07/19 02:16:28;;;;;;;;;;;26.00;33.60;;;;;;6095903;23;20278;-60
2022/07/19 02:18:53;;;;;;;;;;;26.00;33.60;;;;;;6095894;23;19916;-59
2022/07/19 02:21:19;;;;;;;;;;;26.00;33.50;;;;;;6096124;23;20211;-60
2022/07/19 02:23:45;;;;;;;;;;;26.00;33.60;;;;;;6096332;23;19990;-61
2022/07/19 02:26:10;;;;;;;;;;;25.90;33.80;;;;;;6096889;23;19909;-59
2022/07/19 02:28:36;;;;;;;;;;;25.90;33.60;;;;;;6097806;23;19915;-60
2022/07/19 02:31:02;;;;;;;;;;;25.90;33.50;;;;;;6097737;23;19909;-60
2022/07/19 02:33:27;;;;;;;;;;;25.90;33.60;;;;;;6097767;23;19927;-62
2022/07/19 02:35:53;;;;;;;;;;;25.90;33.40;;;;;;6097868;23;20304;-62
2022/07/19 02:38:18;;;;;;;;;;;25.90;33.50;;;;;;6097767;23;20237;-60
2022/07/19 02:40:44;;;;;;;;;;;26.00;33.30;;;;;;6097938;23;19930;-60
2022/07/19 02:43:09;;;;;;;;;;;25.90;33.20;;;;;;6097719;23;19909;-60
2022/07/19 02:45:35;;;;;;;;;;;25.90;33.20;;;;;;6101145;23;20274;-59
2022/07/19 02:48:02;;;;;;;;;;;26.00;33.30;;;;;;6106077;23;20211;-59
2022/07/19 02:50:28;;;;;;;;;;;26.00;33.20;;;;;;6097796;23;19917;-60
2022/07/19 02:52:53;;;;;;;;;;;25.90;33.10;;;;;;6097729;23;19910;-63
2022/07/19 02:55:19;;;;;;;;;;;25.90;32.90;;;;;;6097563;23;19935;-64
2022/07/19 02:57:44;;;;;;;;;;;25.80;33.20;;;;;;6097801;23;19906;-60
2022/07/19 03:00:10;;;;;;;;;;;25.90;33.00;;;;;;6097606;23;19909;-61
2022/07/19 03:02:36;;;;;;;;;;;26.00;32.70;;;;;;6097617;23;19916;-59
2022/07/19 03:05:02;;;;;;;;;;;26.00;32.60;;;;;;6097679;23;19928;-59
2022/07/19 03:07:27;;;;;;;;;;;26.00;33.00;;;;;;6097671;23;20349;-59
2022/07/19 03:09:53;;;;;;;;;;;26.00;32.30;;;;;;6097481;23;19937;-59
2022/07/19 03:12:18;;;;;;;;;;;26.10;32.40;;;;;;6097812;23;20274;-60
2022/07/19 03:14:44;;;;;;;;;;;26.00;32.20;;;;;;6097481;23;20275;-59
2022/07/19 03:17:10;;;;;;;;;;;26.00;32.30;;;;;;6097605;23;19981;-59
2022/07/19 03:19:35;;;;;;;;;;;26.00;32.10;;;;;;6097501;23;19909;-59
2022/07/19 03:22:01;;;;;;;;;;;26.00;32.50;;;;;;6097398;23;19909;-60
2022/07/19 03:24:26;;;;;;;;;;;26.00;32.30;;;;;;6097673;23;19913;-60
2022/07/19 03:26:52;;;;;;;;;;;26.00;32.60;;;;;;6097459;23;19905;-60
2022/07/19 03:29:17;;;;;;;;;;;26.00;32.50;;;;;;6097320;23;19947;-59
2022/07/19 03:31:43;;;;;;;;;;;26.00;32.20;;;;;;6097360;23;19906;-59
2022/07/19 03:34:08;;;;;;;;;;;26.00;32.20;;;;;;6095589;23;19906;-60
2022/07/19 03:36:34;;;;;;;;;;;26.00;32.20;;;;;;6097505;23;19909;-60
2022/07/19 03:38:59;;;;;;;;;;;26.00;32.20;;;;;;6097136;23;20238;-59
2022/07/19 03:41:25;;;;;;;;;;;26.00;32.80;;;;;;6097139;23;20237;-59
2022/07/19 03:43:51;;;;;;;;;;;26.00;32.10;;;;;;6097328;23;20280;-62
2022/07/19 03:46:16;;;;;;;;;;;26.00;32.00;;;;;;6097226;23;19906;-60
2022/07/19 03:48:42;;;;;;;;;;;26.10;32.00;;;;;;6097429;23;19929;-59
2022/07/19 03:51:07;;;;;;;;;;;26.00;32.00;;;;;;6097263;23;20401;-60
2022/07/19 03:53:34;;;;;;;;;;;26.10;32.00;;;;;;6097023;23;20323;-59
2022/07/19 03:56:00;;;;;;;;;;;26.10;32.00;;;;;;6097160;23;19912;-59
2022/07/19 03:58:25;;;;;;;;;;;26.10;32.00;;;;;;6097033;23;19991;-59
2022/07/19 04:00:51;;;;;;;;;;;26.10;31.90;;;;;;6097215;23;19925;-60
2022/07/19 04:03:17;;;;;;;;;;;26.20;32.00;;;;;;6095269;23;19912;-61
2022/07/19 04:05:43;;;;;;;;;;;26.20;32.10;;;;;;6097069;23;19910;-59
2022/07/19 04:08:08;;;;;;;;;;;26.20;32.00;;;;;;6097164;23;20309;-60
2022/07/19 04:10:34;;;;;;;;;;;26.20;31.90;;;;;;6096897;23;20023;-60
2022/07/19 04:12:59;;;;;;;;;;;26.20;32.00;;;;;;6096968;23;19921;-60
2022/07/19 04:15:25;;;;;;;;;;;26.20;32.00;;;;;;6097157;23;19925;-60
2022/07/19 04:17:51;;;;;;;;;;;26.20;31.80;;;;;;6096846;23;20362;-60
2022/07/19 04:20:16;;;;;;;;;;;26.20;31.70;;;;;;6096857;23;20246;-59
2022/07/19 04:22:42;;;;;;;;;;;26.30;31.60;;;;;;6096842;23;19909;-60
2022/07/19 04:25:08;;;;;;;;;;;26.30;31.80;;;;;;6096963;23;19913;-59
2022/07/19 04:27:34;;;;;;;;;;;26.30;31.50;;;;;;6096741;23;20318;-60
2022/07/19 04:30:00;;;;;;;;;;;26.20;31.50;;;;;;6097033;23;19913;-61
2022/07/19 04:32:25;;;;;;;;;;;26.30;31.60;;;;;;6096612;23;19937;-61
2022/07/19 04:34:51;;;;;;;;;;;26.30;31.70;;;;;;6096743;23;19912;-66
2022/07/19 04:37:16;;;;;;;;;;;26.30;31.50;;;;;;6097711;23;19980;-62
2022/07/19 04:39:42;;;;;;;;;;;26.30;31.60;;;;;;6107836;23;19910;-64
2022/07/19 04:42:08;;;;;;;;;;;26.30;31.60;;;;;;6096875;23;19905;-67
2022/07/19 04:44:33;;;;;;;;;;;26.30;31.60;;;;;;6097089;23;19905;-60
2022/07/19 04:46:59;;;;;;;;;;;26.40;31.80;;;;;;6096613;23;19909;-63
2022/07/19 04:49:24;;;;;;;;;;;26.40;31.70;;;;;;6096282;23;19909;-62
2022/07/19 04:51:50;;;;;;;;;;;26.30;31.90;;;;;;6096461;23;19960;-61
2022/07/19 04:54:16;;;;;;;;;;;26.40;31.80;;;;;;6096791;23;19988;-60
2022/07/19 04:56:42;;;;;;;;;;;26.30;32.00;;;;;;6096587;23;20279;-60
2022/07/19 04:59:07;;;;;;;;;;;26.30;32.00;;;;;;6095439;23;19905;-60
2022/07/19 05:01:34;;;;;;;;;;;26.40;31.80;;;;;;6096275;23;19948;-59
2022/07/19 05:03:59;;;;;;;;;;;26.40;32.00;;;;;;6096356;23;19909;-59
2022/07/19 05:06:25;;;;;;;;;;;26.40;31.90;;;;;;6096655;23;19913;-59
2022/07/19 05:08:52;;;;;;;;;;;26.40;31.90;;;;;;6094719;23;19909;-60
2022/07/19 05:11:18;;;;;;;;;;;26.40;31.90;;;;;;6096310;23;20011;-60
2022/07/19 05:13:43;;;;;;;;;;;26.40;32.00;;;;;;6096652;23;20323;-59
2022/07/19 05:16:09;;;;;;;;;;;26.40;32.20;;;;;;6096232;23;20326;-59
2022/07/19 05:18:34;;;;;;;;;;;26.40;32.00;;;;;;6096681;23;19917;-62
2022/07/19 05:21:00;;;;;;;;;;;26.40;31.90;;;;;;6096275;23;19952;-60
2022/07/19 05:23:26;;;;;;;;;;;26.50;32.00;;;;;;6096161;23;19913;-61
2022/07/19 05:25:51;;;;;;;;;;;26.50;32.10;;;;;;6096482;23;19910;-63
2022/07/19 05:28:17;;;;;;;;;;;26.60;32.10;;;;;;6096413;23;19905;-59
2022/07/19 05:30:43;;;;;;;;;;;26.60;31.90;;;;;;6095568;23;19973;-60
2022/07/19 05:33:09;;;;;;;;;;;26.60;32.00;;;;;;6096235;23;19960;-63
2022/07/19 05:35:34;;;;;;;;;;;26.70;32.00;;;;;;6096444;23;20271;-60
2022/07/19 05:38:00;;;;;;;;;;;26.70;31.90;;;;;;6094780;23;20278;-61
2022/07/19 05:40:25;;;;;;;;;;;26.70;31.60;;;;;;6096737;23;20377;-61
2022/07/19 05:42:51;;;;;;;;;;;26.70;31.50;;;;;;6096140;23;19905;-59
2022/07/19 05:45:16;;;;;;;;;;;26.80;31.60;;;;;;6095925;23;19980;-59
2022/07/19 05:47:42;;;;;;;;;;;26.80;31.60;;;;;;6094507;23;19909;-62
2022/07/19 05:50:08;;;;;;;;;;;27.00;31.40;;;;;;6095931;23;19919;-60
2022/07/19 05:52:33;;;;;;;;;;;27.30;30.70;;;;;;6096171;23;19909;-62
2022/07/19 05:54:59;;;;;;;;;;;27.60;30.20;;;;;;6096233;23;19909;-61
2022/07/19 05:57:24;;;;;;;;;;;28.00;29.90;;;;;;6095965;23;19905;-61
2022/07/19 05:59:50;;;;;;;;;;;28.20;29.60;;;;;;6095496;23;19909;-59
2022/07/19 06:02:16;;;;;;;;;;;28.40;29.10;;;;;;6095337;23;19936;-60
2022/07/19 06:04:42;;;;;;;;;;;28.30;29.40;;;;;;6095708;23;20237;-59
2022/07/19 06:07:07;;;;;;;;;;;28.50;28.90;;;;;;6095889;23;19911;-59
2022/07/19 06:09:33;;;;;;;;;;;28.80;28.70;;;;;;6096032;23;19917;-59
2022/07/19 06:11:58;;;;;;;;;;;28.90;28.50;;;;;;6096018;23;19905;-60
2022/07/19 06:14:24;;;;;;;;;;;29.00;28.40;;;;;;6096050;23;19905;-61
2022/07/19 06:16:49;;;;;;;;;;;29.00;28.40;;;;;;6095928;23;19921;-65
2022/07/19 06:19:15;;;;;;;;;;;29.10;28.20;;;;;;6096139;23;20254;-59
2022/07/19 06:21:41;;;;;;;;;;;29.20;28.00;;;;;;6096419;23;20318;-61
2022/07/19 06:24:06;;;;;;;;;;;29.00;27.90;;;;;;6095920;23;19910;-61
2022/07/19 06:26:32;;;;;;;;;;;29.20;28.20;;;;;;6096419;23;20222;-60
2022/07/19 06:28:57;;;;;;;;;;;29.20;28.10;;;;;;6096115;23;19909;-62
2022/07/19 06:31:23;;;;;;;;;;;29.40;27.70;;;;;;6097749;23;19905;-61
2022/07/19 06:33:49;;;;;;;;;;;29.50;27.70;;;;;;6101170;23;19912;-60
2022/07/19 06:36:15;;;;;;;;;;;29.50;27.50;;;;;;6095921;23;19940;-60
2022/07/19 06:38:42;;;;;;;;;;;29.80;27.90;;;;;;6096564;23;19909;-61
2022/07/19 06:41:07;;;;;;;;;;;30.10;27.80;;;;;;6096316;23;19941;-60
2022/07/19 06:43:33;;;;;;;;;;;30.30;26.90;;;;;;6096679;23;19909;-59
2022/07/19 06:45:58;;;;;;;;;;;30.40;27.00;;;;;;6096778;23;20247;-61
2022/07/19 06:48:24;;;;;;;;;;;30.30;26.90;;;;;;6096828;23;19988;-60
2022/07/19 06:50:50;;;;;;;;;;;30.30;27.20;;;;;;6095599;23;19999;-59
2022/07/19 06:53:15;;;;;;;;;;;30.40;27.30;;;;;;6095648;23;19995;-62
2022/07/19 06:55:41;;;;;;;;;;;30.50;27.20;;;;;;6096068;23;19935;-60
2022/07/19 06:58:06;;;;;;;;;;;30.70;27.00;;;;;;6095886;23;19905;-58
2022/07/19 07:00:32;;;;;;;;;;;30.90;26.90;;;;;;6095756;23;19905;-59
2022/07/19 07:02:57;;;;;;;;;;;31.10;26.90;;;;;;6095946;23;19920;-58
2022/07/19 07:05:23;;;;;;;;;;;31.30;26.20;;;;;;6095889;23;20375;-59
2022/07/19 07:07:51;;;;;;;;;;;31.40;26.00;;;;;;6095967;23;19932;-59
2022/07/19 07:10:17;;;;;;;;;;;31.50;25.90;;;;;;6095606;23;20416;-58
2022/07/19 07:12:42;;;;;;;;;;;31.60;26.10;;;;;;6096037;23;19905;-58
2022/07/19 07:15:08;;;;;;;;;;;31.50;25.60;;;;;;6097584;23;19960;-65
2022/07/19 07:17:34;;;;;;;;;;;31.40;25.70;;;;;;6097818;23;19913;-60
2022/07/19 07:20:00;;;;;;;;;;;31.50;25.90;;;;;;6097482;23;19972;-67
2022/07/19 07:22:26;;;;;;;;;;;31.50;25.50;;;;;;6097370;23;19956;-59
2022/07/19 07:24:51;;;;;;;;;;;31.10;25.60;;;;;;6097094;23;19912;-58
2022/07/19 07:27:17;;;;;;;;;;;30.90;25.90;;;;;;6096317;23;19915;-61
2022/07/19 07:29:42;;;;;;;;;;;30.80;26.00;;;;;;6096272;23;19935;-62
2022/07/19 07:32:08;;;;;;;;;;;30.60;25.90;;;;;;6094530;23;19905;-61
2022/07/19 07:34:33;;;;;;;;;;;30.70;25.90;;;;;;6096294;23;20344;-62
2022/07/19 07:36:59;;;;;;;;;;;30.70;26.00;;;;;;6096203;23;19905;-61
2022/07/19 07:39:25;;;;;;;;;;;30.80;26.00;;;;;;6096403;23;19945;-61
2022/07/19 07:41:50;;;;;;;;;;;30.80;26.20;;;;;;6096816;23;19916;-62
2022/07/19 07:44:16;;;;;;;;;;;31.10;26.10;;;;;;6096527;23;19932;-61
2022/07/19 07:46:41;;;;;;;;;;;31.10;25.90;;;;;;6095556;23;19905;-61
2022/07/19 07:49:07;;;;;;;;;;;31.10;26.00;;;;;;6097204;23;19913;-61
2022/07/19 07:51:33;;;;;;;;;;;31.30;25.80;;;;;;6097523;23;19916;-61
2022/07/19 07:53:59;;;;;;;;;;;31.10;25.90;;;;;;6096852;23;19920;-61
2022/07/19 07:56:25;;;;;;;;;;;31.20;26.00;;;;;;6097157;23;19913;-61
2022/07/19 07:58:50;;;;;;;;;;;31.20;26.10;;;;;;6095542;23;20385;-61
2022/07/19 08:01:16;;;;;;;;;;;31.20;25.40;;;;;;6097164;23;19909;-61
2022/07/19 08:03:42;;;;;;;;;;;31.10;26.00;;;;;;6096847;23;19912;-62
2022/07/19 08:06:07;;;;;;;;;;;31.40;26.10;;;;;;6096983;23;19970;-61
2022/07/19 08:08:33;;;;;;;;;;;31.70;25.80;;;;;;6096975;23;19905;-61
2022/07/19 08:10:58;;;;;;;;;;;31.80;26.00;;;;;;6096865;23;19920;-61
2022/07/19 08:13:24;;;;;;;;;;;32.00;25.70;;;;;;6096721;23;20270;-61
2022/07/19 08:15:50;;;;;;;;;;;32.00;25.70;;;;;;6096895;23;19917;-61
2022/07/19 08:18:15;;;;;;;;;;;32.00;25.50;;;;;;6096903;23;20349;-61
2022/07/19 08:20:41;;;;;;;;;;;32.00;26.20;;;;;;6096777;23;19909;-61
2022/07/19 08:23:06;;;;;;;;;;;31.90;25.30;;;;;;6101152;23;19952;-61
2022/07/19 08:25:35;;;;;;;;;;;31.70;25.70;;;;;;6100091;23;20211;-62
2022/07/19 08:28:01;;;;;;;;;;;31.70;25.60;;;;;;6095300;23;20422;-61
2022/07/19 08:30:27;;;;;;;;;;;32.00;25.60;;;;;;6095110;23;19948;-62
2022/07/19 08:32:52;;;;;;;;;;;32.10;25.90;;;;;;6095267;23;19905;-60
2022/07/19 08:35:18;;;;;;;;;;;32.30;24.90;;;;;;6096012;23;19909;-61
2022/07/19 08:37:44;;;;;;;;;;;32.40;25.00;;;;;;6096846;23;19925;-61
2022/07/19 08:40:10;;;;;;;;;;;32.20;25.10;;;;;;6096616;23;19984;-61
2022/07/19 08:42:35;;;;;;;;;;;32.30;25.00;;;;;;6096598;23;19912;-61
2022/07/19 08:45:03;;;;;;;;;;;32.30;25.10;;;;;;6096623;23;20322;-61
2022/07/19 08:47:29;;;;;;;;;;;32.30;25.10;;;;;;6096582;23;19939;-61
2022/07/19 08:49:57;;;;;;;;;;;32.40;25.00;;;;;;6096555;23;19920;-61
2022/07/19 08:52:23;;;;;;;;;;;32.40;25.10;;;;;;6096823;23;20296;-62
2022/07/19 08:54:49;;;;;;;;;;;32.40;24.90;;;;;;6098420;23;19948;-62
2022/07/19 08:59:59;;;;;;;;;;;32.70;24.70;;;;;;6098129;23;19916;-60
2022/07/19 09:02:24;;;;;;;;;;;32.80;24.70;;;;;;6097009;23;19988;-61
2022/07/19 09:05:00;;;;;;;;;;;32.90;24.50;;;;;;6096654;23;19988;-61
2022/07/19 09:07:25;;;;;;;;;;;33.10;24.70;;;;;;6096524;23;19928;-63
2022/07/19 09:09:51;;;;;;;;;;;33.20;24.00;;;;;;6096408;23;20342;-61
2022/07/19 09:12:16;;;;;;;;;;;33.30;24.30;;;;;;6096362;23;19909;-60
2022/07/19 09:14:52;;;;;;;;;;;33.50;24.30;;;;;;6096409;23;19928;-61
2022/07/19 09:17:19;;;;;;;;;;;33.30;24.00;;;;;;6096091;23;19969;-62
2022/07/19 09:19:46;;;;;;;;;;;33.50;24.50;;;;;;6096317;23;19909;-63
2022/07/19 09:22:16;;;;;;;;;;;33.50;24.20;;;;;;6096089;23;19952;-62
2022/07/19 09:24:43;;;;;;;;;;;33.50;24.60;;;;;;6096205;23;20311;-62
2022/07/19 09:27:13;;;;;;;;;;;33.50;25.00;;;;;;6096336;23;20384;-63
2022/07/19 09:29:41;;;;;;;;;;;33.30;24.70;;;;;;6094695;23;19921;-61
2022/07/19 09:32:08;;;;;;;;;;;33.20;25.10;;;;;;6096229;23;19958;-61
2022/07/19 09:34:34;;;;;;;;;;;33.30;25.20;;;;;;6096090;23;19909;-62
2022/07/19 09:37:27;;;;;;;;;;;33.40;24.70;;;;;;6096025;23;19909;-62
2022/07/19 09:39:54;;;;;;;;;;;33.50;24.80;;;;;;6091111;23;19912;-62
2022/07/19 09:42:21;;;;;;;;;;;33.50;25.20;;;;;;6096078;23;19912;-62
2022/07/19 09:44:55;;;;;;;;;;;33.60;25.50;;;;;;6096268;23;19913;-61
2022/07/19 09:47:29;;;;;;;;;;;33.70;25.40;;;;;;6096098;23;19916;-62
2022/07/19 09:49:55;;;;;;;;;;;33.70;25.30;;;;;;6096176;23;20254;-61
2022/07/19 09:52:21;;;;;;;;;;;33.40;25.50;;;;;;6096001;23;19909;-63
2022/07/19 09:54:46;;;;;;;;;;;33.30;26.10;;;;;;6094678;23;19963;-61
2022/07/19 09:57:13;;;;;;;;;;;33.20;26.40;;;;;;6096189;23;20229;-61
2022/07/19 09:59:45;;;;;;;;;;;33.00;27.00;;;;;;6095997;23;19905;-63
2022/07/19 10:02:11;;;;;;;;;;;32.70;27.30;;;;;;6096117;23;19984;-62
2022/07/19 10:04:37;;;;;;;;;;;32.80;27.50;;;;;;6096192;23;19943;-61
2022/07/19 10:07:03;;;;;;;;;;;32.80;27.50;;;;;;6096107;23;19916;-64
2022/07/19 10:09:29;;;;;;;;;;;32.90;27.50;;;;;;6096076;23;20238;-62
2022/07/19 10:11:55;;;;;;;;;;;32.90;27.50;;;;;;6102754;23;19912;-62
2022/07/19 10:14:20;;;;;;;;;;;32.70;27.60;;;;;;6098322;23;19988;-63
2022/07/19 10:17:02;;;;;;;;;;;32.80;27.80;;;;;;6095936;23;20046;-64
2022/07/19 10:19:42;;;;;;;;;;;33.00;27.50;;;;;;6096030;23;19909;-63
2022/07/19 10:22:12;;;;;;;;;;;33.10;27.20;;;;;;6095848;23;19913;-61
2022/07/19 10:24:42;;;;;;;;;;;33.00;26.50;;;;;;6096132;23;19909;-61
2022/07/19 10:27:08;;;;;;;;;;;33.00;26.40;;;;;;6096058;23;20322;-61
2022/07/19 10:29:33;;;;;;;;;;;33.00;26.30;;;;;;6095904;23;19997;-61
2022/07/19 10:32:03;;;;;;;;;;;33.00;26.20;;;;;;6094945;23;19906;-63
2022/07/19 10:34:29;;;;;;;;;;;33.00;25.80;;;;;;6094754;23;19909;-66
2022/07/19 10:36:55;;;;;;;;;;;33.00;26.20;;;;;;6094508;23;19929;-63
2022/07/19 10:39:24;;;;;;;;;;;32.90;26.00;;;;;;6094885;23;19912;-63
2022/07/19 10:42:06;;;;;;;;;;;32.90;25.60;;;;;;6094654;23;19905;-64
2022/07/19 10:44:32;;;;;;;;;;;32.80;25.50;;;;;;6096022;23;19906;-64
2022/07/19 10:46:58;;;;;;;;;;;32.80;25.30;;;;;;6095485;23;20226;-62
2022/07/19 10:49:42;;;;;;;;;;;32.90;25.50;;;;;;6097243;23;20278;-64
2022/07/19 10:52:26;;;;;;;;;;;32.90;25.20;;;;;;6097472;23;19948;-63
2022/07/19 10:55:10;;;;;;;;;;;32.90;25.30;;;;;;6096391;23;19959;-63
2022/07/19 10:57:37;;;;;;;;;;;32.80;24.70;;;;;;6096843;23;19916;-61
2022/07/19 11:00:23;;;;;;;;;;;32.80;24.80;;;;;;6096284;23;19965;-62
2022/07/19 11:02:49;;;;;;;;;;;32.80;24.60;;;;;;6093925;23;20246;-63
2022/07/19 11:05:21;;;;;;;;;;;32.70;25.00;;;;;;6096365;23;20285;-64
2022/07/19 11:07:51;;;;;;;;;;;32.80;24.90;;;;;;6097743;23;19991;-62
2022/07/19 11:10:25;;;;;;;;;;;32.90;25.20;;;;;;6097146;23;19918;-63
2022/07/19 11:12:51;;;;;;;;;;;33.00;25.10;;;;;;6097272;23;19909;-63
2022/07/19 11:15:16;;;;;;;;;;;33.00;25.10;;;;;;6095562;23;19916;-59
2022/07/19 11:17:56;;;;;;;;;;;33.00;26.00;;;;;;6097270;23;19913;-59
2022/07/19 11:20:22;;;;;;;;;;;32.90;25.40;;;;;;6097202;23;20318;-58
2022/07/19 11:22:48;;;;;;;;;;;33.00;25.60;;;;;;6097027;23;20310;-58
2022/07/19 11:25:14;;;;;;;;;;;33.10;25.10;;;;;;6095551;23;19916;-59
2022/07/19 11:27:41;;;;;;;;;;;33.30;24.20;;;;;;6096750;23;19905;-58
2022/07/19 11:30:07;;;;;;;;;;;33.50;24.60;;;;;;6096661;23;19917;-59
2022/07/19 11:32:32;;;;;;;;;;;33.90;24.50;;;;;;6096743;23;19989;-58
2022/07/19 11:34:59;;;;;;;;;;;34.10;24.30;;;;;;6097028;23;19913;-60
2022/07/19 11:37:27;;;;;;;;;;;34.20;23.70;;;;;;6096927;23;20330;-59
2022/07/19 11:39:52;;;;;;;;;;;34.30;23.90;;;;;;6096800;23;19916;-59
2022/07/19 11:42:47;;;;;;;;;;;34.20;23.70;;;;;;6096488;23;20273;-60
2022/07/19 11:45:20;;;;;;;;;;;34.10;23.80;;;;;;6072030;23;19912;-59
2022/07/19 11:47:50;;;;;;;;;;;34.10;24.10;;;;;;6096903;23;20233;-59
2022/07/19 11:50:17;;;;;;;;;;;34.20;23.80;;;;;;6096446;23;20315;-59
2022/07/19 11:52:42;;;;;;;;;;;34.40;24.00;;;;;;6096496;23;20036;-59
2022/07/19 11:55:09;;;;;;;;;;;34.50;23.80;;;;;;6096690;23;19933;-57
2022/07/19 11:57:34;;;;;;;;;;;34.80;24.20;;;;;;6099532;23;19905;-56
2022/07/19 12:00:00;;;;;;;;;;;34.70;23.10;;;;;;6102284;23;19944;-58
2022/07/19 12:02:25;;;;;;;;;;;34.80;23.20;;;;;;6096586;23;20336;-59
2022/07/19 12:04:51;;;;;;;;;;;34.60;22.80;;;;;;6096403;23;19933;-61
2022/07/19 12:07:18;;;;;;;;;;;34.70;22.70;;;;;;6096562;23;20334;-58
2022/07/19 12:09:43;;;;;;;;;;;34.80;22.80;;;;;;6096468;23;19936;-59
2022/07/19 12:12:16;;;;;;;;;;;34.80;22.70;;;;;;6096426;23;20317;-58
2022/07/19 12:14:42;;;;;;;;;;;34.80;22.80;;;;;;6096668;23;20001;-57
2022/07/19 12:17:16;;;;;;;;;;;34.60;23.00;;;;;;6096330;23;19928;-56
2022/07/19 12:19:43;;;;;;;;;;;34.70;23.30;;;;;;6096616;23;19977;-56
2022/07/19 12:22:28;;;;;;;;;;;34.80;23.00;;;;;;6096516;23;20337;-57
2022/07/19 12:24:53;;;;;;;;;;;34.90;22.90;;;;;;6096320;23;19905;-58
2022/07/19 12:27:20;;;;;;;;;;;34.20;22.70;;;;;;6096812;23;19913;-56
2022/07/19 12:29:46;;;;;;;;;;;34.20;23.00;;;;;;6096126;23;20250;-59
2022/07/19 12:32:14;;;;;;;;;;;34.20;22.90;;;;;;6096486;23;19913;-57
2022/07/19 12:34:45;;;;;;;;;;;34.20;23.20;;;;;;6096223;23;19905;-57
2022/07/19 12:37:18;;;;;;;;;;;34.30;22.60;;;;;;6095950;23;19905;-56
2022/07/19 12:39:55;;;;;;;;;;;34.50;23.00;;;;;;6096453;23;19964;-57
2022/07/19 12:42:21;;;;;;;;;;;34.50;22.90;;;;;;6095810;23;19905;-57
2022/07/19 12:44:49;;;;;;;;;;;34.30;22.00;;;;;;6096356;23;19913;-57
2022/07/19 12:47:15;;;;;;;;;;;34.30;22.50;;;;;;6096258;23;20288;-58
2022/07/19 12:49:41;;;;;;;;;;;34.40;22.50;;;;;;6096039;23;20009;-62
2022/07/19 12:52:07;;;;;;;;;;;34.40;22.30;;;;;;6094799;23;19931;-57
2022/07/19 12:54:32;;;;;;;;;;;34.50;22.10;;;;;;6096530;23;19912;-59
2022/07/19 12:56:58;;;;;;;;;;;34.60;22.00;;;;;;6096550;23;20242;-56
2022/07/19 12:59:38;;;;;;;;;;;34.40;22.30;;;;;;6096484;23;19928;-61
2022/07/19 13:02:04;;;;;;;;;;;34.20;22.70;;;;;;6096418;23;19910;-55
2022/07/19 13:04:30;;;;;;;;;;;34.20;22.70;;;;;;6096463;23;19912;-55
2022/07/19 13:06:55;;;;;;;;;;;34.10;22.30;;;;;;6095015;23;20341;-56
2022/07/19 13:09:21;;;;;;;;;;;33.80;22.70;;;;;;6095159;23;19913;-55
2022/07/19 13:11:46;;;;;;;;;;;33.80;22.80;;;;;;6094298;23;19959;-56
2022/07/19 13:14:12;;;;;;;;;;;34.00;22.80;;;;;;6095650;23;19913;-55
2022/07/19 13:16:38;;;;;;;;;;;34.20;23.10;;;;;;6095612;23;19933;-56
2022/07/19 13:19:04;;;;;;;;;;;34.30;22.40;;;;;;6096330;23;19909;-55
2022/07/19 13:21:29;;;;;;;;;;;34.30;22.30;;;;;;6096443;23;19906;-56
2022/07/19 13:23:55;;;;;;;;;;;34.30;22.20;;;;;;6095975;23;19984;-56
2022/07/19 13:26:20;;;;;;;;;;;34.40;23.00;;;;;;6096444;23;20296;-56
2022/07/19 13:28:46;;;;;;;;;;;34.50;22.30;;;;;;6096771;23;20322;-54
2022/07/19 13:31:11;;;;;;;;;;;34.50;22.10;;;;;;6096568;23;19964;-55
2022/07/19 13:33:37;;;;;;;;;;;34.40;22.00;;;;;;6096272;23;19909;-55
2022/07/19 13:36:03;;;;;;;;;;;34.30;21.90;;;;;;6096490;23;19905;-55
2022/07/19 13:38:28;;;;;;;;;;;34.50;21.80;;;;;;6096249;23;19916;-57
2022/07/19 13:40:54;;;;;;;;;;;34.50;22.20;;;;;;6096750;23;19982;-56
2022/07/19 13:43:19;;;;;;;;;;;34.50;21.80;;;;;;6102302;23;19905;-55
2022/07/19 13:45:45;;;;;;;;;;;34.50;22.10;;;;;;6099844;23;19909;-57
2022/07/19 13:48:11;;;;;;;;;;;34.60;21.60;;;;;;6096919;23;19949;-55
2022/07/19 13:50:37;;;;;;;;;;;34.60;21.60;;;;;;6096165;23;19917;-55
2022/07/19 13:53:03;;;;;;;;;;;34.70;21.80;;;;;;6096570;23;19968;-56
2022/07/19 13:55:29;;;;;;;;;;;34.60;33.60;;;;;;6096293;23;20322;-55
2022/07/19 13:57:54;;;;;;;;;;;34.10;36.50;;;;;;6096529;23;20234;-56
2022/07/19 14:00:20;;;;;;;;;;;33.60;38.40;;;;;;6096434;23;19983;-55
2022/07/19 14:02:46;;;;;;;;;;;33.30;37.90;;;;;;6096725;23;20230;-56
2022/07/19 14:05:12;;;;;;;;;;;33.40;37.70;;;;;;6096633;23;19909;-55
2022/07/19 14:07:38;;;;;;;;;;;33.10;35.30;;;;;;6096878;23;19909;-55
2022/07/19 14:10:04;;;;;;;;;;;32.50;32.50;;;;;;6095779;23;19920;-55
2022/07/19 14:12:30;;;;;;;;;;;32.40;32.00;;;;;;6095617;23;19905;-55
2022/07/19 14:14:56;;;;;;;;;;;32.70;31.90;;;;;;6095983;23;20348;-60